Zomergem, Belgium
Current Conditions -  °F | °C
As of 5:25 PM on Wednesday 22 Oct 2014 (Local Time) from EHFS Reporting Station
Scattered Clouds Scattered Clouds  
Wind Chill: 55°   Ceiling: Unl
Heat Index: 55°   Visibility: 6mi
Dew Point: 45°   Wind: 17mph
Humidity: 67%   Direction: 290°WNW
Pressure: 30.18"   Gusts: NA
Location:  51.12°N, 3.56°E
Report Text: EHFS 221525Z AUTO 29015KT 260V330 9999 FEW030/// SCT040///13/07 Q1022
Loading
Personal Weather Stations






























Interactive Weather Map
Tropical Storm Tracking
New forecast layout! Learn more

10-Day Weather Forecast

Advertisements
Track Severe Weather on mobile